sensor_id;sensor_type;location;lat;lon;timestamp;pressure;altitude;pressure_sealevel;temperature;humidity
11912;BME280;6016;41.928;25.556;2023-03-25T00:02:31;98724.50;;;11.00;64.95
11912;BME280;6016;41.928;25.556;2023-03-25T00:04:59;98856.69;;;11.79;65.83
11912;BME280;6016;41.928;25.556;2023-03-25T00:07:29;98858.94;;;11.74;65.24
11912;BME280;6016;41.928;25.556;2023-03-25T00:09:56;98851.53;;;11.77;65.76
11912;BME280;6016;41.928;25.556;2023-03-25T00:12:23;98802.22;;;11.42;66.18
11912;BME280;6016;41.928;25.556;2023-03-25T00:14:50;98736.03;;;10.98;65.78
11912;BME280;6016;41.928;25.556;2023-03-25T00:17:20;98853.53;;;11.57;66.86
11912;BME280;6016;41.928;25.556;2023-03-25T00:19:47;98841.31;;;11.56;66.44
11912;BME280;6016;41.928;25.556;2023-03-25T00:22:15;98818.22;;;11.40;66.80
11912;BME280;6016;41.928;25.556;2023-03-25T00:24:43;98648.84;;;10.46;66.77
11912;BME280;6016;41.928;25.556;2023-03-25T00:27:10;98764.53;;;11.13;65.91
11912;BME280;6016;41.928;25.556;2023-03-25T00:29:39;98844.94;;;11.55;66.45
11912;BME280;6016;41.928;25.556;2023-03-25T00:32:06;98826.44;;;11.37;65.88
11912;BME280;6016;41.928;25.556;2023-03-25T00:34:32;98800.69;;;11.13;66.16
11912;BME280;6016;41.928;25.556;2023-03-25T00:37:06;98795.97;;;11.24;66.45
11912;BME280;6016;41.928;25.556;2023-03-25T00:39:33;98794.19;;;11.25;65.74
11912;BME280;6016;41.928;25.556;2023-03-25T00:42:01;98802.00;;;11.35;66.48
11912;BME280;6016;41.928;25.556;2023-03-25T00:44:29;98786.53;;;11.40;66.49
11912;BME280;6016;41.928;25.556;2023-03-25T00:46:56;98817.88;;;11.61;65.57
11912;BME280;6016;41.928;25.556;2023-03-25T00:49:23;98616.84;;;10.31;66.50
11912;BME280;6016;41.928;25.556;2023-03-25T00:51:53;98781.56;;;11.37;66.22
11912;BME280;6016;41.928;25.556;2023-03-25T00:54:20;98729.22;;;11.14;66.21
11912;BME280;6016;41.928;25.556;2023-03-25T00:56:47;98828.66;;;11.68;66.75
11912;BME280;6016;41.928;25.556;2023-03-25T00:59:16;98813.09;;;11.57;67.48
11912;BME280;6016;41.928;25.556;2023-03-25T01:01:42;98804.47;;;11.54;67.17
11912;BME280;6016;41.928;25.556;2023-03-25T01:04:10;98793.19;;;11.44;66.94
11912;BME280;6016;41.928;25.556;2023-03-25T01:06:38;98808.78;;;11.37;66.77
11912;BME280;6016;41.928;25.556;2023-03-25T01:09:09;98749.91;;;11.19;65.83
11912;BME280;6016;41.928;25.556;2023-03-25T01:11:38;98800.94;;;11.46;66.48
11912;BME280;6016;41.928;25.556;2023-03-25T01:14:06;98800.13;;;11.45;67.06
11912;BME280;6016;41.928;25.556;2023-03-25T01:16:37;98792.94;;;11.37;66.63
11912;BME280;6016;41.928;25.556;2023-03-25T01:19:04;98728.88;;;10.91;67.48
11912;BME280;6016;41.928;25.556;2023-03-25T01:21:31;98794.53;;;11.30;68.13
11912;BME280;6016;41.928;25.556;2023-03-25T01:24:00;98623.41;;;10.26;67.81
11912;BME280;6016;41.928;25.556;2023-03-25T01:26:28;98787.44;;;11.31;67.40
11912;BME280;6016;41.928;25.556;2023-03-25T01:28:54;98792.03;;;11.29;67.66
11912;BME280;6016;41.928;25.556;2023-03-25T01:31:21;98790.47;;;11.18;67.94
11912;BME280;6016;41.928;25.556;2023-03-25T01:33:51;98790.34;;;11.19;67.43
11912;BME280;6016;41.928;25.556;2023-03-25T01:36:18;98792.34;;;11.07;67.61
11912;BME280;6016;41.928;25.556;2023-03-25T01:38:45;98748.09;;;10.83;67.37
11912;BME280;6016;41.928;25.556;2023-03-25T01:41:15;98746.91;;;10.77;67.73
11912;BME280;6016;41.928;25.556;2023-03-25T01:44:00;98633.69;;;10.02;67.35
11912;BME280;6016;41.928;25.556;2023-03-25T01:46:27;98642.75;;;10.17;67.08
11912;BME280;6016;41.928;25.556;2023-03-25T01:48:55;98766.88;;;10.98;67.95
11912;BME280;6016;41.928;25.556;2023-03-25T01:51:27;98763.25;;;10.99;68.14
11912;BME280;6016;41.928;25.556;2023-03-25T01:53:54;98768.47;;;10.91;67.59
11912;BME280;6016;41.928;25.556;2023-03-25T01:56:24;98765.97;;;10.89;67.55
11912;BME280;6016;41.928;25.556;2023-03-25T01:58:56;98667.38;;;10.26;67.86
11912;BME280;6016;41.928;25.556;2023-03-25T02:01:24;98631.75;;;10.04;67.53
11912;BME280;6016;41.928;25.556;2023-03-25T02:03:55;98697.28;;;10.45;67.43
11912;BME280;6016;41.928;25.556;2023-03-25T02:06:33;98764.69;;;10.93;67.64
11912;BME280;6016;41.928;25.556;2023-03-25T02:09:04;98747.47;;;10.71;67.13
11912;BME280;6016;41.928;25.556;2023-03-25T02:11:33;98759.84;;;10.71;69.33
11912;BME280;6016;41.928;25.556;2023-03-25T02:14:04;98763.34;;;10.43;68.83
11912;BME280;6016;41.928;25.556;2023-03-25T02:16:38;98654.53;;;9.95;68.14
11912;BME280;6016;41.928;25.556;2023-03-25T02:19:30;98729.97;;;10.52;67.83
11912;BME280;6016;41.928;25.556;2023-03-25T02:25:15;98745.28;;;10.66;68.55
11912;BME280;6016;41.928;25.556;2023-03-25T02:27:56;98732.06;;;10.48;68.24
11912;BME280;6016;41.928;25.556;2023-03-25T02:30:34;98734.34;;;10.43;67.89
11912;BME280;6016;41.928;25.556;2023-03-25T02:36:24;98751.16;;;10.60;68.29
11912;BME280;6016;41.928;25.556;2023-03-25T02:38:59;98744.53;;;10.56;68.66
11912;BME280;6016;41.928;25.556;2023-03-25T02:41:32;98713.28;;;10.33;68.51
11912;BME280;6016;41.928;25.556;2023-03-25T02:44:06;98740.53;;;10.52;68.77
11912;BME280;6016;41.928;25.556;2023-03-25T02:46:40;98739.28;;;10.56;68.48
11912;BME280;6016;41.928;25.556;2023-03-25T02:49:13;98733.81;;;10.58;68.80
11912;BME280;6016;41.928;25.556;2023-03-25T02:51:45;98689.50;;;10.43;67.90
11912;BME280;6016;41.928;25.556;2023-03-25T02:54:16;98725.78;;;10.59;68.05
11912;BME280;6016;41.928;25.556;2023-03-25T02:56:47;98726.16;;;10.64;68.10
11912;BME280;6016;41.928;25.556;2023-03-25T02:59:17;98650.13;;;10.13;67.71
11912;BME280;6016;41.928;25.556;2023-03-25T03:01:44;98726.16;;;10.64;67.88
11912;BME280;6016;41.928;25.556;2023-03-25T03:04:14;98717.22;;;10.47;66.60
11912;BME280;6016;41.928;25.556;2023-03-25T03:06:42;98726.28;;;10.45;66.99
11912;BME280;6016;41.928;25.556;2023-03-25T03:09:24;98721.28;;;10.41;66.92
11912;BME280;6016;41.928;25.556;2023-03-25T03:12:08;98721.19;;;10.33;66.95
11912;BME280;6016;41.928;25.556;2023-03-25T03:14:58;98733.94;;;10.38;67.53
11912;BME280;6016;41.928;25.556;2023-03-25T03:17:29;98722.53;;;10.37;66.58
11912;BME280;6016;41.928;25.556;2023-03-25T03:20:08;98694.19;;;9.93;67.27
11912;BME280;6016;41.928;25.556;2023-03-25T03:22:41;98647.41;;;9.39;68.75
11912;BME280;6016;41.928;25.556;2023-03-25T03:25:20;98712.50;;;9.95;68.63
11912;BME280;6016;41.928;25.556;2023-03-25T03:27:51;98742.66;;;10.10;68.24
11912;BME280;6016;41.928;25.556;2023-03-25T03:30:25;98733.91;;;10.10;68.81
11912;BME280;6016;41.928;25.556;2023-03-25T03:33:02;98638.00;;;9.37;68.24
11912;BME280;6016;41.928;25.556;2023-03-25T03:35:36;98705.31;;;9.87;67.67
11912;BME280;6016;41.928;25.556;2023-03-25T03:38:07;98731.75;;;9.95;68.07
11912;BME280;6016;41.928;25.556;2023-03-25T03:40:38;98730.94;;;9.95;68.57
11912;BME280;6016;41.928;25.556;2023-03-25T03:43:08;98730.78;;;9.96;68.74
11912;BME280;6016;41.928;25.556;2023-03-25T03:45:38;98731.31;;;10.00;68.47
11912;BME280;6016;41.928;25.556;2023-03-25T03:48:09;98735.38;;;9.94;68.64
11912;BME280;6016;41.928;25.556;2023-03-25T03:50:42;98716.47;;;9.71;69.11
11912;BME280;6016;41.928;25.556;2023-03-25T03:53:19;98736.63;;;9.90;69.46
11912;BME280;6016;41.928;25.556;2023-03-25T03:55:51;98648.66;;;9.45;69.18
11912;BME280;6016;41.928;25.556;2023-03-25T03:58:25;98720.63;;;9.74;69.60
11912;BME280;6016;41.928;25.556;2023-03-25T04:00:58;98715.78;;;9.69;69.67
11912;BME280;6016;41.928;25.556;2023-03-25T04:03:28;98714.22;;;9.76;70.15
11912;BME280;6016;41.928;25.556;2023-03-25T04:06:05;98534.22;;;8.64;70.24
11912;BME280;6016;41.928;25.556;2023-03-25T04:08:38;98716.22;;;9.64;70.27
11912;BME280;6016;41.928;25.556;2023-03-25T04:11:09;98717.16;;;9.73;70.63
11912;BME280;6016;41.928;25.556;2023-03-25T04:13:41;98699.19;;;9.59;70.72
11912;BME280;6016;41.928;25.556;2023-03-25T04:16:09;98720.28;;;9.87;70.25
11912;BME280;6016;41.928;25.556;2023-03-25T04:18:36;98717.34;;;9.90;69.76
11912;BME280;6016;41.928;25.556;2023-03-25T04:21:04;98715.13;;;9.95;68.82
11912;BME280;6016;41.928;25.556;2023-03-25T04:23:31;98720.09;;;9.98;68.79
11912;BME280;6016;41.928;25.556;2023-03-25T04:25:59;98691.84;;;9.90;68.33
11912;BME280;6016;41.928;25.556;2023-03-25T04:28:28;98719.06;;;10.09;67.76
11912;BME280;6016;41.928;25.556;2023-03-25T04:30:56;98707.47;;;10.02;67.73
11912;BME280;6016;41.928;25.556;2023-03-25T04:33:25;98639.06;;;9.54;67.61
11912;BME280;6016;41.928;25.556;2023-03-25T04:35:54;98700.50;;;9.82;66.91
11912;BME280;6016;41.928;25.556;2023-03-25T04:38:20;98726.19;;;9.98;66.64
11912;BME280;6016;41.928;25.556;2023-03-25T04:40:47;98720.66;;;9.92;67.26
11912;BME280;6016;41.928;25.556;2023-03-25T04:43:15;98720.41;;;9.95;67.41
11912;BME280;6016;41.928;25.556;2023-03-25T04:45:43;98723.03;;;9.95;67.64
11912;BME280;6016;41.928;25.556;2023-03-25T04:48:21;98640.56;;;9.09;67.83
11912;BME280;6016;41.928;25.556;2023-03-25T04:50:50;98722.44;;;10.01;67.48
11912;BME280;6016;41.928;25.556;2023-03-25T04:53:17;98727.03;;;9.99;67.30
11912;BME280;6016;41.928;25.556;2023-03-25T04:55:44;98718.84;;;10.02;67.28
11912;BME280;6016;41.928;25.556;2023-03-25T04:58:13;98681.13;;;9.64;67.30
11912;BME280;6016;41.928;25.556;2023-03-25T05:00:41;98726.28;;;9.79;67.77
11912;BME280;6016;41.928;25.556;2023-03-25T05:03:10;98721.69;;;9.81;67.64
11912;BME280;6016;41.928;25.556;2023-03-25T05:05:37;98713.97;;;9.69;68.92
11912;BME280;6016;41.928;25.556;2023-03-25T05:08:04;98713.13;;;9.79;69.75
11912;BME280;6016;41.928;25.556;2023-03-25T05:10:32;98719.00;;;9.91;70.04
11912;BME280;6016;41.928;25.556;2023-03-25T05:13:02;98695.22;;;9.82;69.54
11912;BME280;6016;41.928;25.556;2023-03-25T05:15:30;98706.63;;;10.01;69.60
11912;BME280;6016;41.928;25.556;2023-03-25T05:18:00;98709.94;;;10.03;70.04
11912;BME280;6016;41.928;25.556;2023-03-25T05:20:28;98709.50;;;10.08;68.59
11912;BME280;6016;41.928;25.556;2023-03-25T05:22:57;98718.66;;;10.13;68.53
11912;BME280;6016;41.928;25.556;2023-03-25T05:25:24;98726.25;;;10.17;67.97
11912;BME280;6016;41.928;25.556;2023-03-25T05:27:50;98728.44;;;10.21;67.34
11912;BME280;6016;41.928;25.556;2023-03-25T05:30:18;98723.97;;;10.32;67.34
11912;BME280;6016;41.928;25.556;2023-03-25T05:32:45;98681.06;;;10.11;66.38
11912;BME280;6016;41.928;25.556;2023-03-25T05:35:15;98722.38;;;10.49;66.66
11912;BME280;6016;41.928;25.556;2023-03-25T05:37:44;98689.66;;;10.41;66.41
11912;BME280;6016;41.928;25.556;2023-03-25T05:40:11;98643.19;;;10.12;66.47
11912;BME280;6016;41.928;25.556;2023-03-25T05:42:39;98627.38;;;10.12;67.49
11912;BME280;6016;41.928;25.556;2023-03-25T05:45:13;98471.41;;;9.26;67.37
11912;BME280;6016;41.928;25.556;2023-03-25T05:47:42;98673.69;;;10.61;68.20
11912;BME280;6016;41.928;25.556;2023-03-25T05:50:09;98649.41;;;10.39;67.51
11912;BME280;6016;41.928;25.556;2023-03-25T05:52:36;98714.72;;;10.92;66.82
11912;BME280;6016;41.928;25.556;2023-03-25T05:55:09;98712.28;;;10.98;66.63
11912;BME280;6016;41.928;25.556;2023-03-25T05:57:37;98693.19;;;10.87;66.59
11912;BME280;6016;41.928;25.556;2023-03-25T06:00:05;98594.69;;;10.23;65.87
11912;BME280;6016;41.928;25.556;2023-03-25T06:02:33;98710.31;;;11.01;65.99
11912;BME280;6016;41.928;25.556;2023-03-25T06:05:00;98706.38;;;11.05;67.12
11912;BME280;6016;41.928;25.556;2023-03-25T06:07:26;98704.19;;;11.18;66.71
11912;BME280;6016;41.928;25.556;2023-03-25T06:09:54;98700.31;;;11.31;66.32
11912;BME280;6016;41.928;25.556;2023-03-25T06:12:22;98652.31;;;11.09;66.70
11912;BME280;6016;41.928;25.556;2023-03-25T06:14:52;98663.47;;;10.76;67.37
11912;BME280;6016;41.928;25.556;2023-03-25T06:17:20;98719.44;;;11.51;66.23
11912;BME280;6016;41.928;25.556;2023-03-25T06:19:47;98718.50;;;11.60;66.70
11912;BME280;6016;41.928;25.556;2023-03-25T06:22:15;98637.56;;;11.24;66.84
11912;BME280;6016;41.928;25.556;2023-03-25T06:24:42;98648.03;;;11.34;66.83
11912;BME280;6016;41.928;25.556;2023-03-25T06:27:12;98706.22;;;11.77;67.05
11912;BME280;6016;41.928;25.556;2023-03-25T06:29:41;98716.38;;;11.90;65.91
11912;BME280;6016;41.928;25.556;2023-03-25T06:32:08;98696.03;;;11.91;65.98
11912;BME280;6016;41.928;25.556;2023-03-25T06:34:37;98715.84;;;12.21;65.83
11912;BME280;6016;41.928;25.556;2023-03-25T06:37:07;98642.66;;;11.87;65.88
11912;BME280;6016;41.928;25.556;2023-03-25T06:39:34;98714.94;;;12.47;65.63
11912;BME280;6016;41.928;25.556;2023-03-25T06:42:03;98635.69;;;12.13;65.05
11912;BME280;6016;41.928;25.556;2023-03-25T06:44:30;98721.56;;;12.51;65.23
11912;BME280;6016;41.928;25.556;2023-03-25T06:46:58;98714.16;;;12.72;65.76
11912;BME280;6016;41.928;25.556;2023-03-25T06:49:26;98657.09;;;12.77;64.81
11912;BME280;6016;41.928;25.556;2023-03-25T06:51:53;98640.03;;;13.21;62.53
11912;BME280;6016;41.928;25.556;2023-03-25T06:54:20;98715.28;;;15.42;59.12
11912;BME280;6016;41.928;25.556;2023-03-25T06:56:47;98584.50;;;17.36;51.00
11912;BME280;6016;41.928;25.556;2023-03-25T06:59:14;98719.19;;;20.26;46.19
11912;BME280;6016;41.928;25.556;2023-03-25T07:01:41;98704.78;;;21.74;42.53
11912;BME280;6016;41.928;25.556;2023-03-25T07:04:09;98701.84;;;23.05;39.23
11912;BME280;6016;41.928;25.556;2023-03-25T07:06:35;98696.41;;;24.53;37.33
11912;BME280;6016;41.928;25.556;2023-03-25T07:09:02;98720.78;;;25.95;34.26
11912;BME280;6016;41.928;25.556;2023-03-25T07:11:31;98721.47;;;27.07;33.20
11912;BME280;6016;41.928;25.556;2023-03-25T07:13:58;98714.97;;;27.84;32.17
11912;BME280;6016;41.928;25.556;2023-03-25T07:16:25;98714.97;;;28.53;30.76
11912;BME280;6016;41.928;25.556;2023-03-25T07:18:52;98714.75;;;29.12;30.28
11912;BME280;6016;41.928;25.556;2023-03-25T07:21:22;98708.47;;;28.80;29.09
11912;BME280;6016;41.928;25.556;2023-03-25T07:23:49;98511.78;;;27.46;30.17
11912;BME280;6016;41.928;25.556;2023-03-25T07:26:16;98598.44;;;27.94;30.75
11912;BME280;6016;41.928;25.556;2023-03-25T07:28:43;98635.19;;;28.54;30.07
11912;BME280;6016;41.928;25.556;2023-03-25T07:31:11;98699.53;;;29.37;29.34
11912;BME280;6016;41.928;25.556;2023-03-25T07:33:39;98658.75;;;29.31;28.00
11912;BME280;6016;41.928;25.556;2023-03-25T07:36:07;98706.59;;;29.27;28.21
11912;BME280;6016;41.928;25.556;2023-03-25T07:38:37;98625.13;;;28.44;29.22
11912;BME280;6016;41.928;25.556;2023-03-25T07:41:05;98696.28;;;28.88;28.84
11912;BME280;6016;41.928;25.556;2023-03-25T07:43:32;98705.78;;;28.80;28.91
11912;BME280;6016;41.928;25.556;2023-03-25T07:45:58;98647.06;;;28.22;28.75
11912;BME280;6016;41.928;25.556;2023-03-25T07:48:26;98712.47;;;28.41;29.43
11912;BME280;6016;41.928;25.556;2023-03-25T07:50:52;98705.81;;;27.96;30.08
11912;BME280;6016;41.928;25.556;2023-03-25T07:53:19;98708.97;;;27.39;31.63
11912;BME280;6016;41.928;25.556;2023-03-25T07:55:47;98700.50;;;26.92;31.99
11912;BME280;6016;41.928;25.556;2023-03-25T07:58:15;98692.38;;;26.65;32.06
11912;BME280;6016;41.928;25.556;2023-03-25T08:00:42;98688.19;;;26.52;32.43
11912;BME280;6016;41.928;25.556;2023-03-25T08:03:09;98696.38;;;26.30;32.45
11912;BME280;6016;41.928;25.556;2023-03-25T08:05:36;98698.22;;;25.84;33.75
11912;BME280;6016;41.928;25.556;2023-03-25T08:08:04;98696.38;;;25.68;33.64
11912;BME280;6016;41.928;25.556;2023-03-25T08:10:31;98675.78;;;25.45;34.24
11912;BME280;6016;41.928;25.556;2023-03-25T08:13:00;98679.91;;;25.30;34.09
11912;BME280;6016;41.928;25.556;2023-03-25T08:15:27;98686.38;;;25.29;33.46
11912;BME280;6016;41.928;25.556;2023-03-25T08:17:54;98687.72;;;25.32;34.47
11912;BME280;6016;41.928;25.556;2023-03-25T08:20:21;98694.28;;;25.36;34.21
11912;BME280;6016;41.928;25.556;2023-03-25T08:22:48;98645.16;;;25.17;33.92
11912;BME280;6016;41.928;25.556;2023-03-25T08:25:15;98615.44;;;25.17;35.59
11912;BME280;6016;41.928;25.556;2023-03-25T08:27:42;98667.59;;;25.56;35.17
11912;BME280;6016;41.928;25.556;2023-03-25T08:30:11;98670.09;;;25.63;34.02
11912;BME280;6016;41.928;25.556;2023-03-25T08:32:39;98667.34;;;25.58;33.75
11912;BME280;6016;41.928;25.556;2023-03-25T08:35:06;98669.81;;;25.42;35.03
11912;BME280;6016;41.928;25.556;2023-03-25T08:37:33;98669.53;;;25.44;34.62
11912;BME280;6016;41.928;25.556;2023-03-25T08:40:02;98670.47;;;25.50;36.28
11912;BME280;6016;41.928;25.556;2023-03-25T08:42:33;98671.91;;;25.40;36.06
11912;BME280;6016;41.928;25.556;2023-03-25T08:45:00;98660.31;;;25.40;34.45
11912;BME280;6016;41.928;25.556;2023-03-25T08:47:29;98659.66;;;25.50;34.48
11912;BME280;6016;41.928;25.556;2023-03-25T08:49:57;98660.50;;;25.50;34.33
11912;BME280;6016;41.928;25.556;2023-03-25T08:52:24;98650.66;;;25.44;34.48
11912;BME280;6016;41.928;25.556;2023-03-25T08:54:51;98663.53;;;25.20;34.77
11912;BME280;6016;41.928;25.556;2023-03-25T08:57:17;98655.19;;;25.21;35.13
11912;BME280;6016;41.928;25.556;2023-03-25T08:59:44;98654.94;;;25.23;34.09
11912;BME280;6016;41.928;25.556;2023-03-25T09:02:11;98635.66;;;24.97;32.09
11912;BME280;6016;41.928;25.556;2023-03-25T09:04:39;98640.38;;;24.72;34.05
11912;BME280;6016;41.928;25.556;2023-03-25T09:07:07;98646.50;;;24.68;35.81
11912;BME280;6016;41.928;25.556;2023-03-25T09:09:35;98622.47;;;24.66;36.56
11912;BME280;6016;41.928;25.556;2023-03-25T09:12:03;98574.66;;;24.62;36.37
11912;BME280;6016;41.928;25.556;2023-03-25T09:14:30;98639.06;;;25.26;34.87
11912;BME280;6016;41.928;25.556;2023-03-25T09:16:57;98588.63;;;24.76;35.47
11912;BME280;6016;41.928;25.556;2023-03-25T09:19:24;98566.00;;;24.94;35.96
11912;BME280;6016;41.928;25.556;2023-03-25T09:21:52;98583.63;;;25.41;35.84
11912;BME280;6016;41.928;25.556;2023-03-25T09:24:19;98622.25;;;25.81;33.83
11912;BME280;6016;41.928;25.556;2023-03-25T09:26:47;98586.94;;;25.88;33.02
11912;BME280;6016;41.928;25.556;2023-03-25T09:29:13;98599.13;;;26.18;34.13
11912;BME280;6016;41.928;25.556;2023-03-25T09:31:40;98547.31;;;25.98;32.28
11912;BME280;6016;41.928;25.556;2023-03-25T09:34:07;98600.25;;;26.49;34.30
11912;BME280;6016;41.928;25.556;2023-03-25T09:36:34;98599.34;;;26.71;33.74
11912;BME280;6016;41.928;25.556;2023-03-25T09:39:03;98594.97;;;26.65;31.91
11912;BME280;6016;41.928;25.556;2023-03-25T09:41:40;98579.91;;;26.42;32.95
11912;BME280;6016;41.928;25.556;2023-03-25T09:44:16;98566.19;;;26.21;31.10
11912;BME280;6016;41.928;25.556;2023-03-25T09:46:45;98401.78;;;25.03;32.71
11912;BME280;6016;41.928;25.556;2023-03-25T09:49:16;98580.09;;;26.30;31.71
11912;BME280;6016;41.928;25.556;2023-03-25T09:51:45;98583.56;;;26.03;33.09
11912;BME280;6016;41.928;25.556;2023-03-25T09:54:21;98580.53;;;25.72;33.43
11912;BME280;6016;41.928;25.556;2023-03-25T09:56:48;98580.53;;;25.49;32.69
11912;BME280;6016;41.928;25.556;2023-03-25T09:59:18;98565.59;;;25.64;34.38
11912;BME280;6016;41.928;25.556;2023-03-25T10:01:50;98424.53;;;24.90;33.38
11912;BME280;6016;41.928;25.556;2023-03-25T10:04:37;98555.66;;;25.97;34.04
11912;BME280;6016;41.928;25.556;2023-03-25T10:07:13;98521.56;;;25.91;33.39
11912;BME280;6016;41.928;25.556;2023-03-25T10:09:49;98550.03;;;26.04;34.25
11912;BME280;6016;41.928;25.556;2023-03-25T10:12:28;98493.72;;;25.63;34.05
11912;BME280;6016;41.928;25.556;2023-03-25T10:15:11;98476.69;;;25.62;33.81
11912;BME280;6016;41.928;25.556;2023-03-25T10:17:47;98535.22;;;26.06;33.00
11912;BME280;6016;41.928;25.556;2023-03-25T10:20:24;98510.72;;;25.86;33.17
11912;BME280;6016;41.928;25.556;2023-03-25T10:23:02;98520.44;;;25.87;34.07
11912;BME280;6016;41.928;25.556;2023-03-25T10:25:36;98513.75;;;25.67;33.95
11912;BME280;6016;41.928;25.556;2023-03-25T10:28:11;98487.19;;;25.36;33.24
11912;BME280;6016;41.928;25.556;2023-03-25T10:30:46;98495.84;;;25.16;33.71
11912;BME280;6016;41.928;25.556;2023-03-25T10:33:18;98498.13;;;25.24;33.54
11912;BME280;6016;41.928;25.556;2023-03-25T10:35:47;98441.19;;;24.64;33.78
11912;BME280;6016;41.928;25.556;2023-03-25T10:38:17;98452.16;;;24.97;34.42
11912;BME280;6016;41.928;25.556;2023-03-25T10:40:48;98486.81;;;25.05;33.12
11912;BME280;6016;41.928;25.556;2023-03-25T10:43:20;98460.75;;;24.54;36.33
11912;BME280;6016;41.928;25.556;2023-03-25T10:45:53;98478.38;;;24.79;34.62
11912;BME280;6016;41.928;25.556;2023-03-25T10:48:23;98450.16;;;24.70;35.73
11912;BME280;6016;41.928;25.556;2023-03-25T10:50:58;98308.41;;;23.78;36.01
11912;BME280;6016;41.928;25.556;2023-03-25T10:53:28;98460.31;;;24.63;36.63
11912;BME280;6016;41.928;25.556;2023-03-25T10:56:00;98329.44;;;23.98;35.73
11912;BME280;6016;41.928;25.556;2023-03-25T10:58:28;98413.34;;;24.58;36.25
11912;BME280;6016;41.928;25.556;2023-03-25T11:00:56;98444.25;;;24.90;35.14
11912;BME280;6016;41.928;25.556;2023-03-25T11:03:25;98397.88;;;24.32;34.35
11912;BME280;6016;41.928;25.556;2023-03-25T11:05:55;98450.97;;;24.70;36.09
11912;BME280;6016;41.928;25.556;2023-03-25T11:08:22;98446.03;;;24.79;36.33
11912;BME280;6016;41.928;25.556;2023-03-25T11:10:50;98441.06;;;24.93;35.14
11912;BME280;6016;41.928;25.556;2023-03-25T11:13:26;98311.16;;;24.17;36.79
11912;BME280;6016;41.928;25.556;2023-03-25T11:15:55;98435.97;;;25.19;35.92
11912;BME280;6016;41.928;25.556;2023-03-25T11:18:26;98422.66;;;24.90;34.58
11912;BME280;6016;41.928;25.556;2023-03-25T11:20:57;98426.50;;;25.17;34.51
11912;BME280;6016;41.928;25.556;2023-03-25T11:23:29;98375.69;;;24.86;35.07
11912;BME280;6016;41.928;25.556;2023-03-25T11:26:02;98413.88;;;24.78;33.80
11912;BME280;6016;41.928;25.556;2023-03-25T11:28:35;98407.25;;;24.29;35.87
11912;BME280;6016;41.928;25.556;2023-03-25T11:31:12;98375.31;;;24.38;34.66
11912;BME280;6016;41.928;25.556;2023-03-25T11:33:41;98380.97;;;24.02;34.74
11912;BME280;6016;41.928;25.556;2023-03-25T11:36:27;98340.78;;;24.17;34.38
11912;BME280;6016;41.928;25.556;2023-03-25T11:38:59;98293.72;;;24.25;35.01
11912;BME280;6016;41.928;25.556;2023-03-25T11:41:30;98232.91;;;23.90;33.38
11912;BME280;6016;41.928;25.556;2023-03-25T11:43:59;98373.22;;;24.84;33.04
11912;BME280;6016;41.928;25.556;2023-03-25T11:46:27;98336.53;;;24.61;32.87
11912;BME280;6016;41.928;25.556;2023-03-25T11:48:54;98373.34;;;24.95;32.79
11912;BME280;6016;41.928;25.556;2023-03-25T11:51:23;98373.41;;;24.78;34.85
11912;BME280;6016;41.928;25.556;2023-03-25T11:53:55;98362.75;;;24.88;34.15
11912;BME280;6016;41.928;25.556;2023-03-25T11:56:27;98303.88;;;24.63;33.75
11912;BME280;6016;41.928;25.556;2023-03-25T11:58:57;98359.31;;;25.20;32.44
11912;BME280;6016;41.928;25.556;2023-03-25T12:01:28;98302.03;;;24.85;34.53
11912;BME280;6016;41.928;25.556;2023-03-25T12:04:09;98355.31;;;25.28;33.19
11912;BME280;6016;41.928;25.556;2023-03-25T12:06:52;98355.94;;;25.35;32.53
11912;BME280;6016;41.928;25.556;2023-03-25T12:09:19;98358.91;;;25.34;33.46
11912;BME280;6016;41.928;25.556;2023-03-25T12:11:55;98347.81;;;25.30;33.42
11912;BME280;6016;41.928;25.556;2023-03-25T12:14:30;98302.75;;;25.03;34.86
11912;BME280;6016;41.928;25.556;2023-03-25T12:17:05;98335.94;;;25.31;34.44
11912;BME280;6016;41.928;25.556;2023-03-25T12:19:44;98343.72;;;25.27;34.62
11912;BME280;6016;41.928;25.556;2023-03-25T12:22:27;98336.44;;;25.28;32.65
11912;BME280;6016;41.928;25.556;2023-03-25T12:25:11;98331.41;;;25.37;34.23
11912;BME280;6016;41.928;25.556;2023-03-25T12:27:52;98323.47;;;25.52;32.59
11912;BME280;6016;41.928;25.556;2023-03-25T12:30:34;98324.31;;;25.58;32.55
11912;BME280;6016;41.928;25.556;2023-03-25T12:33:17;98319.25;;;25.39;31.85
11912;BME280;6016;41.928;25.556;2023-03-25T12:36:02;98314.72;;;25.45;32.37
11912;BME280;6016;41.928;25.556;2023-03-25T12:38:40;98244.41;;;24.97;32.59
11912;BME280;6016;41.928;25.556;2023-03-25T12:41:19;98321.06;;;25.56;32.44
11912;BME280;6016;41.928;25.556;2023-03-25T12:44:00;98314.16;;;25.70;32.97
11912;BME280;6016;41.928;25.556;2023-03-25T12:49:25;98253.09;;;25.37;34.57
11912;BME280;6016;41.928;25.556;2023-03-25T12:52:03;98269.53;;;25.63;33.60
11912;BME280;6016;41.928;25.556;2023-03-25T12:54:44;98293.97;;;25.83;32.54
11912;BME280;6016;41.928;25.556;2023-03-25T12:57:25;98295.03;;;25.82;32.66
11912;BME280;6016;41.928;25.556;2023-03-25T13:00:18;98294.09;;;25.61;31.79
11912;BME280;6016;41.928;25.556;2023-03-25T13:03:10;98232.84;;;25.02;32.37
11912;BME280;6016;41.928;25.556;2023-03-25T13:05:49;98285.41;;;25.26;33.15
11912;BME280;6016;41.928;25.556;2023-03-25T13:08:19;98278.19;;;25.37;32.52
11912;BME280;6016;41.928;25.556;2023-03-25T13:10:52;98268.31;;;25.48;32.48
11912;BME280;6016;41.928;25.556;2023-03-25T13:13:23;98263.75;;;25.49;32.81
11912;BME280;6016;41.928;25.556;2023-03-25T13:15:55;98262.16;;;25.53;32.85
11912;BME280;6016;41.928;25.556;2023-03-25T13:18:29;98249.41;;;25.48;34.04
11912;BME280;6016;41.928;25.556;2023-03-25T13:21:02;98195.91;;;25.45;33.65
11912;BME280;6016;41.928;25.556;2023-03-25T13:23:33;98241.00;;;25.82;32.65
11912;BME280;6016;41.928;25.556;2023-03-25T13:26:02;98218.53;;;25.72;32.46
11912;BME280;6016;41.928;25.556;2023-03-25T13:28:36;98248.41;;;26.03;33.00
11912;BME280;6016;41.928;25.556;2023-03-25T13:31:06;98247.25;;;25.88;32.84